sensor_id;sensor_type;location;lat;lon;timestamp;P1;durP1;ratioP1;P2;durP2;ratioP2
47713;SDS011;33475;46.614;13.888;2023-04-23T00:02:09;3.50;;;2.80;;
47713;SDS011;33475;46.614;13.888;2023-04-23T00:04:37;5.97;;;3.10;;
47713;SDS011;33475;46.614;13.888;2023-04-23T00:07:03;3.17;;;2.80;;
47713;SDS011;33475;46.614;13.888;2023-04-23T00:09:30;7.82;;;3.15;;
47713;SDS011;33475;46.614;13.888;2023-04-23T00:11:57;5.03;;;3.22;;
47713;SDS011;33475;46.614;13.888;2023-04-23T00:14:23;4.13;;;2.97;;
47713;SDS011;33475;46.614;13.888;2023-04-23T00:16:51;3.60;;;3.10;;
47713;SDS011;33475;46.614;13.888;2023-04-23T00:19:17;5.03;;;2.75;;
47713;SDS011;33475;46.614;13.888;2023-04-23T00:21:43;2.95;;;2.72;;
47713;SDS011;33475;46.614;13.888;2023-04-23T00:24:10;3.47;;;2.65;;
47713;SDS011;33475;46.614;13.888;2023-04-23T00:26:36;5.35;;;2.60;;
47713;SDS011;33475;46.614;13.888;2023-04-23T00:29:02;4.00;;;2.38;;
47713;SDS011;33475;46.614;13.888;2023-04-23T00:31:28;3.00;;;2.58;;
47713;SDS011;33475;46.614;13.888;2023-04-23T00:33:54;4.22;;;2.47;;
47713;SDS011;33475;46.614;13.888;2023-04-23T00:36:20;8.07;;;2.58;;
47713;SDS011;33475;46.614;13.888;2023-04-23T00:38:47;3.17;;;2.90;;
47713;SDS011;33475;46.614;13.888;2023-04-23T00:41:13;3.00;;;2.70;;
47713;SDS011;33475;46.614;13.888;2023-04-23T00:43:39;3.85;;;2.50;;
47713;SDS011;33475;46.614;13.888;2023-04-23T00:46:06;3.65;;;2.60;;
47713;SDS011;33475;46.614;13.888;2023-04-23T00:48:32;3.75;;;3.03;;
47713;SDS011;33475;46.614;13.888;2023-04-23T00:51:01;3.42;;;2.58;;
47713;SDS011;33475;46.614;13.888;2023-04-23T00:53:28;2.97;;;2.60;;
47713;SDS011;33475;46.614;13.888;2023-04-23T00:55:54;3.28;;;2.83;;
47713;SDS011;33475;46.614;13.888;2023-04-23T00:58:20;4.50;;;2.47;;
47713;SDS011;33475;46.614;13.888;2023-04-23T01:00:47;3.35;;;2.15;;
47713;SDS011;33475;46.614;13.888;2023-04-23T01:03:15;2.65;;;2.40;;
47713;SDS011;33475;46.614;13.888;2023-04-23T01:05:46;3.92;;;2.88;;
47713;SDS011;33475;46.614;13.888;2023-04-23T01:08:14;4.30;;;2.80;;
47713;SDS011;33475;46.614;13.888;2023-04-23T01:10:41;4.18;;;3.15;;
47713;SDS011;33475;46.614;13.888;2023-04-23T01:13:08;3.08;;;2.88;;
47713;SDS011;33475;46.614;13.888;2023-04-23T01:15:34;4.80;;;3.15;;
47713;SDS011;33475;46.614;13.888;2023-04-23T01:18:00;3.55;;;3.25;;
47713;SDS011;33475;46.614;13.888;2023-04-23T01:20:28;3.00;;;2.65;;
47713;SDS011;33475;46.614;13.888;2023-04-23T01:22:55;2.88;;;2.60;;
47713;SDS011;33475;46.614;13.888;2023-04-23T01:25:21;3.90;;;2.70;;
47713;SDS011;33475;46.614;13.888;2023-04-23T01:27:47;4.15;;;2.40;;
47713;SDS011;33475;46.614;13.888;2023-04-23T01:30:13;3.40;;;2.92;;
47713;SDS011;33475;46.614;13.888;2023-04-23T01:32:39;3.47;;;3.17;;
47713;SDS011;33475;46.614;13.888;2023-04-23T01:35:06;3.58;;;2.95;;
47713;SDS011;33475;46.614;13.888;2023-04-23T01:37:33;5.68;;;2.95;;
47713;SDS011;33475;46.614;13.888;2023-04-23T01:39:59;2.92;;;2.70;;
47713;SDS011;33475;46.614;13.888;2023-04-23T01:42:26;2.88;;;2.67;;
47713;SDS011;33475;46.614;13.888;2023-04-23T01:44:52;3.40;;;2.75;;
47713;SDS011;33475;46.614;13.888;2023-04-23T01:47:18;3.10;;;2.80;;
47713;SDS011;33475;46.614;13.888;2023-04-23T01:49:45;5.60;;;2.70;;
47713;SDS011;33475;46.614;13.888;2023-04-23T01:52:11;3.08;;;2.70;;
47713;SDS011;33475;46.614;13.888;2023-04-23T01:54:37;4.50;;;2.83;;
47713;SDS011;33475;46.614;13.888;2023-04-23T01:57:03;3.92;;;2.92;;
47713;SDS011;33475;46.614;13.888;2023-04-23T01:59:30;3.30;;;3.00;;
47713;SDS011;33475;46.614;13.888;2023-04-23T02:01:56;4.43;;;2.90;;
47713;SDS011;33475;46.614;13.888;2023-04-23T02:04:22;6.25;;;3.10;;
47713;SDS011;33475;46.614;13.888;2023-04-23T02:06:49;3.17;;;2.88;;
47713;SDS011;33475;46.614;13.888;2023-04-23T02:09:16;5.38;;;3.33;;
47713;SDS011;33475;46.614;13.888;2023-04-23T02:11:42;4.95;;;2.95;;
47713;SDS011;33475;46.614;13.888;2023-04-23T02:14:08;3.83;;;3.35;;
47713;SDS011;33475;46.614;13.888;2023-04-23T02:16:35;3.25;;;2.95;;
47713;SDS011;33475;46.614;13.888;2023-04-23T02:19:01;3.10;;;2.90;;
47713;SDS011;33475;46.614;13.888;2023-04-23T02:21:27;7.20;;;3.08;;
47713;SDS011;33475;46.614;13.888;2023-04-23T02:23:54;3.83;;;3.53;;
47713;SDS011;33475;46.614;13.888;2023-04-23T02:26:20;8.10;;;4.15;;
47713;SDS011;33475;46.614;13.888;2023-04-23T02:28:47;3.40;;;3.15;;
47713;SDS011;33475;46.614;13.888;2023-04-23T02:31:13;4.65;;;3.17;;
47713;SDS011;33475;46.614;13.888;2023-04-23T02:33:40;3.22;;;2.92;;
47713;SDS011;33475;46.614;13.888;2023-04-23T02:36:06;3.78;;;3.20;;
47713;SDS011;33475;46.614;13.888;2023-04-23T02:38:35;4.03;;;3.05;;
47713;SDS011;33475;46.614;13.888;2023-04-23T02:41:01;3.78;;;3.40;;
47713;SDS011;33475;46.614;13.888;2023-04-23T02:43:27;4.30;;;3.10;;
47713;SDS011;33475;46.614;13.888;2023-04-23T02:45:53;3.45;;;3.17;;
47713;SDS011;33475;46.614;13.888;2023-04-23T02:48:19;6.82;;;3.38;;
47713;SDS011;33475;46.614;13.888;2023-04-23T02:50:46;4.28;;;3.13;;
47713;SDS011;33475;46.614;13.888;2023-04-23T02:53:13;6.18;;;3.25;;
47713;SDS011;33475;46.614;13.888;2023-04-23T02:55:39;4.40;;;3.70;;
47713;SDS011;33475;46.614;13.888;2023-04-23T02:58:05;5.68;;;3.97;;
47713;SDS011;33475;46.614;13.888;2023-04-23T03:00:31;4.80;;;3.53;;
47713;SDS011;33475;46.614;13.888;2023-04-23T03:02:57;3.85;;;3.40;;
47713;SDS011;33475;46.614;13.888;2023-04-23T03:05:23;7.28;;;3.15;;
47713;SDS011;33475;46.614;13.888;2023-04-23T03:07:49;5.88;;;3.58;;
47713;SDS011;33475;46.614;13.888;2023-04-23T03:10:16;8.40;;;3.80;;
47713;SDS011;33475;46.614;13.888;2023-04-23T03:12:42;4.68;;;3.97;;
47713;SDS011;33475;46.614;13.888;2023-04-23T03:15:08;4.15;;;3.75;;
47713;SDS011;33475;46.614;13.888;2023-04-23T03:17:35;6.70;;;4.03;;
47713;SDS011;33475;46.614;13.888;2023-04-23T03:20:02;3.53;;;3.20;;
47713;SDS011;33475;46.614;13.888;2023-04-23T03:22:29;8.20;;;3.80;;
47713;SDS011;33475;46.614;13.888;2023-04-23T03:24:55;4.00;;;3.53;;
47713;SDS011;33475;46.614;13.888;2023-04-23T03:27:21;6.15;;;3.90;;
47713;SDS011;33475;46.614;13.888;2023-04-23T03:29:47;5.00;;;4.60;;
47713;SDS011;33475;46.614;13.888;2023-04-23T03:32:13;5.10;;;4.25;;
47713;SDS011;33475;46.614;13.888;2023-04-23T03:34:39;5.28;;;4.15;;
47713;SDS011;33475;46.614;13.888;2023-04-23T03:37:05;3.80;;;3.47;;
47713;SDS011;33475;46.614;13.888;2023-04-23T03:39:31;4.07;;;3.17;;
47713;SDS011;33475;46.614;13.888;2023-04-23T03:41:58;3.70;;;3.40;;
47713;SDS011;33475;46.614;13.888;2023-04-23T03:44:24;3.92;;;3.00;;
47713;SDS011;33475;46.614;13.888;2023-04-23T03:46:50;3.60;;;2.95;;
47713;SDS011;33475;46.614;13.888;2023-04-23T03:49:16;4.43;;;3.45;;
47713;SDS011;33475;46.614;13.888;2023-04-23T03:51:42;5.40;;;2.80;;
47713;SDS011;33475;46.614;13.888;2023-04-23T03:54:08;5.03;;;3.00;;
47713;SDS011;33475;46.614;13.888;2023-04-23T03:56:34;7.38;;;3.45;;
47713;SDS011;33475;46.614;13.888;2023-04-23T03:59:01;5.82;;;3.75;;
47713;SDS011;33475;46.614;13.888;2023-04-23T04:01:27;6.50;;;3.88;;
47713;SDS011;33475;46.614;13.888;2023-04-23T04:03:53;5.60;;;3.65;;
47713;SDS011;33475;46.614;13.888;2023-04-23T04:06:19;5.63;;;4.88;;
47713;SDS011;33475;46.614;13.888;2023-04-23T04:08:46;8.18;;;4.57;;
47713;SDS011;33475;46.614;13.888;2023-04-23T04:11:12;4.50;;;4.10;;
47713;SDS011;33475;46.614;13.888;2023-04-23T04:13:38;6.97;;;3.67;;
47713;SDS011;33475;46.614;13.888;2023-04-23T04:16:04;5.57;;;4.32;;
47713;SDS011;33475;46.614;13.888;2023-04-23T04:18:31;5.85;;;5.10;;
47713;SDS011;33475;46.614;13.888;2023-04-23T04:20:57;7.10;;;3.67;;
47713;SDS011;33475;46.614;13.888;2023-04-23T04:23:23;6.20;;;4.00;;
47713;SDS011;33475;46.614;13.888;2023-04-23T04:25:49;4.18;;;3.88;;
47713;SDS011;33475;46.614;13.888;2023-04-23T04:28:18;3.63;;;3.33;;
47713;SDS011;33475;46.614;13.888;2023-04-23T04:30:44;7.05;;;3.25;;
47713;SDS011;33475;46.614;13.888;2023-04-23T04:33:14;4.97;;;3.58;;
47713;SDS011;33475;46.614;13.888;2023-04-23T04:35:40;3.85;;;3.50;;
47713;SDS011;33475;46.614;13.888;2023-04-23T04:38:09;4.82;;;3.47;;
47713;SDS011;33475;46.614;13.888;2023-04-23T04:40:36;5.32;;;3.60;;
47713;SDS011;33475;46.614;13.888;2023-04-23T04:43:02;3.78;;;3.10;;
47713;SDS011;33475;46.614;13.888;2023-04-23T04:45:31;5.22;;;3.42;;
47713;SDS011;33475;46.614;13.888;2023-04-23T04:47:58;3.13;;;2.92;;
47713;SDS011;33475;46.614;13.888;2023-04-23T04:50:24;4.93;;;3.72;;
47713;SDS011;33475;46.614;13.888;2023-04-23T04:52:51;3.75;;;3.40;;
47713;SDS011;33475;46.614;13.888;2023-04-23T04:55:17;4.80;;;3.30;;
47713;SDS011;33475;46.614;13.888;2023-04-23T04:57:43;4.60;;;3.72;;
47713;SDS011;33475;46.614;13.888;2023-04-23T05:00:19;4.07;;;3.67;;
47713;SDS011;33475;46.614;13.888;2023-04-23T05:02:50;5.93;;;5.40;;
47713;SDS011;33475;46.614;13.888;2023-04-23T05:05:17;8.38;;;4.07;;
47713;SDS011;33475;46.614;13.888;2023-04-23T05:07:44;6.43;;;3.78;;
47713;SDS011;33475;46.614;13.888;2023-04-23T05:10:10;3.42;;;3.10;;
47713;SDS011;33475;46.614;13.888;2023-04-23T05:12:36;3.55;;;3.28;;
47713;SDS011;33475;46.614;13.888;2023-04-23T05:15:06;3.40;;;3.10;;
47713;SDS011;33475;46.614;13.888;2023-04-23T05:17:37;4.25;;;3.00;;
47713;SDS011;33475;46.614;13.888;2023-04-23T05:20:03;6.07;;;3.35;;
47713;SDS011;33475;46.614;13.888;2023-04-23T05:22:29;6.82;;;3.60;;
47713;SDS011;33475;46.614;13.888;2023-04-23T05:24:56;3.50;;;3.20;;
47713;SDS011;33475;46.614;13.888;2023-04-23T05:27:22;3.20;;;2.67;;
47713;SDS011;33475;46.614;13.888;2023-04-23T05:29:48;3.92;;;2.90;;
47713;SDS011;33475;46.614;13.888;2023-04-23T05:32:15;2.75;;;2.55;;
47713;SDS011;33475;46.614;13.888;2023-04-23T05:34:41;3.83;;;2.38;;
47713;SDS011;33475;46.614;13.888;2023-04-23T05:37:07;4.57;;;2.67;;
47713;SDS011;33475;46.614;13.888;2023-04-23T05:39:33;3.40;;;2.13;;
47713;SDS011;33475;46.614;13.888;2023-04-23T05:41:59;2.20;;;2.00;;
47713;SDS011;33475;46.614;13.888;2023-04-23T05:44:27;8.82;;;2.10;;
47713;SDS011;33475;46.614;13.888;2023-04-23T05:46:54;7.10;;;2.60;;
47713;SDS011;33475;46.614;13.888;2023-04-23T05:49:21;5.70;;;2.40;;
47713;SDS011;33475;46.614;13.888;2023-04-23T05:51:47;5.22;;;2.70;;
47713;SDS011;33475;46.614;13.888;2023-04-23T05:54:13;3.25;;;2.38;;
47713;SDS011;33475;46.614;13.888;2023-04-23T05:56:39;2.40;;;2.15;;
47713;SDS011;33475;46.614;13.888;2023-04-23T05:59:05;4.88;;;2.45;;
47713;SDS011;33475;46.614;13.888;2023-04-23T06:01:32;2.65;;;2.35;;
47713;SDS011;33475;46.614;13.888;2023-04-23T06:03:58;3.00;;;2.70;;
47713;SDS011;33475;46.614;13.888;2023-04-23T06:06:24;4.63;;;2.28;;
47713;SDS011;33475;46.614;13.888;2023-04-23T06:08:52;7.75;;;2.60;;
47713;SDS011;33475;46.614;13.888;2023-04-23T06:11:18;3.42;;;2.70;;
47713;SDS011;33475;46.614;13.888;2023-04-23T06:13:45;4.30;;;2.75;;
47713;SDS011;33475;46.614;13.888;2023-04-23T06:16:11;20.90;;;3.55;;
47713;SDS011;33475;46.614;13.888;2023-04-23T06:18:38;5.78;;;2.90;;
47713;SDS011;33475;46.614;13.888;2023-04-23T06:21:04;5.10;;;3.60;;
47713;SDS011;33475;46.614;13.888;2023-04-23T06:23:31;2.95;;;2.65;;
47713;SDS011;33475;46.614;13.888;2023-04-23T06:25:57;2.88;;;2.35;;
47713;SDS011;33475;46.614;13.888;2023-04-23T06:28:24;4.25;;;2.45;;
47713;SDS011;33475;46.614;13.888;2023-04-23T06:30:51;2.78;;;2.45;;
47713;SDS011;33475;46.614;13.888;2023-04-23T06:33:17;3.13;;;2.70;;
47713;SDS011;33475;46.614;13.888;2023-04-23T06:35:43;4.78;;;3.00;;
47713;SDS011;33475;46.614;13.888;2023-04-23T06:38:10;4.85;;;2.28;;
47713;SDS011;33475;46.614;13.888;2023-04-23T06:40:37;2.20;;;1.90;;
47713;SDS011;33475;46.614;13.888;2023-04-23T06:43:03;2.78;;;1.65;;
47713;SDS011;33475;46.614;13.888;2023-04-23T06:45:30;2.05;;;1.70;;
47713;SDS011;33475;46.614;13.888;2023-04-23T06:47:57;1.98;;;1.88;;
47713;SDS011;33475;46.614;13.888;2023-04-23T06:50:23;2.45;;;2.08;;
47713;SDS011;33475;46.614;13.888;2023-04-23T06:52:49;2.63;;;1.90;;
47713;SDS011;33475;46.614;13.888;2023-04-23T06:55:16;2.03;;;1.90;;
47713;SDS011;33475;46.614;13.888;2023-04-23T06:57:42;1.70;;;1.52;;
47713;SDS011;33475;46.614;13.888;2023-04-23T07:00:08;3.00;;;1.35;;
47713;SDS011;33475;46.614;13.888;2023-04-23T07:02:35;4.00;;;1.95;;
47713;SDS011;33475;46.614;13.888;2023-04-23T07:05:02;5.40;;;1.70;;
47713;SDS011;33475;46.614;13.888;2023-04-23T07:07:28;2.38;;;2.10;;
47713;SDS011;33475;46.614;13.888;2023-04-23T07:09:55;2.17;;;1.98;;
47713;SDS011;33475;46.614;13.888;2023-04-23T07:12:21;2.10;;;1.85;;
47713;SDS011;33475;46.614;13.888;2023-04-23T07:14:47;1.88;;;1.30;;
47713;SDS011;33475;46.614;13.888;2023-04-23T07:17:14;2.83;;;1.52;;
47713;SDS011;33475;46.614;13.888;2023-04-23T07:19:40;1.50;;;1.40;;
47713;SDS011;33475;46.614;13.888;2023-04-23T07:22:06;2.28;;;2.05;;
47713;SDS011;33475;46.614;13.888;2023-04-23T07:24:32;5.93;;;2.00;;
47713;SDS011;33475;46.614;13.888;2023-04-23T07:26:58;6.80;;;2.50;;
47713;SDS011;33475;46.614;13.888;2023-04-23T07:29:25;1.80;;;1.70;;
47713;SDS011;33475;46.614;13.888;2023-04-23T07:31:51;1.70;;;1.60;;
47713;SDS011;33475;46.614;13.888;2023-04-23T07:34:17;2.40;;;1.27;;
47713;SDS011;33475;46.614;13.888;2023-04-23T07:36:43;1.73;;;1.40;;
47713;SDS011;33475;46.614;13.888;2023-04-23T07:39:09;2.03;;;1.48;;
47713;SDS011;33475;46.614;13.888;2023-04-23T07:41:36;2.10;;;1.50;;
47713;SDS011;33475;46.614;13.888;2023-04-23T07:44:02;1.90;;;1.48;;
47713;SDS011;33475;46.614;13.888;2023-04-23T07:46:28;4.53;;;1.70;;
47713;SDS011;33475;46.614;13.888;2023-04-23T07:48:55;2.35;;;1.50;;
47713;SDS011;33475;46.614;13.888;2023-04-23T07:51:21;1.70;;;1.60;;
47713;SDS011;33475;46.614;13.888;2023-04-23T07:53:51;1.60;;;1.50;;
47713;SDS011;33475;46.614;13.888;2023-04-23T07:56:18;1.80;;;1.70;;
47713;SDS011;33475;46.614;13.888;2023-04-23T07:58:45;1.67;;;1.58;;
47713;SDS011;33475;46.614;13.888;2023-04-23T08:01:11;1.70;;;1.38;;
47713;SDS011;33475;46.614;13.888;2023-04-23T08:03:37;2.75;;;1.45;;
47713;SDS011;33475;46.614;13.888;2023-04-23T08:06:04;2.42;;;1.67;;
47713;SDS011;33475;46.614;13.888;2023-04-23T08:08:30;3.25;;;1.60;;
47713;SDS011;33475;46.614;13.888;2023-04-23T08:10:57;1.80;;;1.70;;
47713;SDS011;33475;46.614;13.888;2023-04-23T08:13:23;3.70;;;1.42;;
47713;SDS011;33475;46.614;13.888;2023-04-23T08:15:49;1.33;;;1.13;;
47713;SDS011;33475;46.614;13.888;2023-04-23T08:18:16;1.70;;;1.60;;
47713;SDS011;33475;46.614;13.888;2023-04-23T08:20:42;2.85;;;1.42;;
47713;SDS011;33475;46.614;13.888;2023-04-23T08:23:08;3.10;;;1.90;;
47713;SDS011;33475;46.614;13.888;2023-04-23T08:25:34;1.95;;;1.73;;
47713;SDS011;33475;46.614;13.888;2023-04-23T08:28:00;3.40;;;2.30;;
47713;SDS011;33475;46.614;13.888;2023-04-23T08:30:27;1.70;;;1.60;;
47713;SDS011;33475;46.614;13.888;2023-04-23T08:32:53;3.38;;;1.40;;
47713;SDS011;33475;46.614;13.888;2023-04-23T08:35:20;1.90;;;1.65;;
47713;SDS011;33475;46.614;13.888;2023-04-23T08:37:46;1.70;;;1.60;;
47713;SDS011;33475;46.614;13.888;2023-04-23T08:40:13;2.40;;;1.90;;
47713;SDS011;33475;46.614;13.888;2023-04-23T08:45:09;3.72;;;1.75;;
47713;SDS011;33475;46.614;13.888;2023-04-23T08:47:36;1.95;;;1.80;;
47713;SDS011;33475;46.614;13.888;2023-04-23T08:50:07;1.90;;;1.80;;
47713;SDS011;33475;46.614;13.888;2023-04-23T08:52:33;1.98;;;1.60;;
47713;SDS011;33475;46.614;13.888;2023-04-23T08:55:03;1.95;;;1.50;;
47713;SDS011;33475;46.614;13.888;2023-04-23T08:57:31;2.00;;;1.70;;
47713;SDS011;33475;46.614;13.888;2023-04-23T08:59:58;2.30;;;1.73;;
47713;SDS011;33475;46.614;13.888;2023-04-23T09:02:24;1.90;;;1.70;;
47713;SDS011;33475;46.614;13.888;2023-04-23T09:04:51;2.63;;;1.50;;
47713;SDS011;33475;46.614;13.888;2023-04-23T09:07:18;2.28;;;1.60;;
47713;SDS011;33475;46.614;13.888;2023-04-23T09:09:44;2.97;;;1.70;;
47713;SDS011;33475;46.614;13.888;2023-04-23T09:12:11;1.88;;;1.55;;
47713;SDS011;33475;46.614;13.888;2023-04-23T09:14:37;1.73;;;1.60;;
47713;SDS011;33475;46.614;13.888;2023-04-23T09:17:03;1.50;;;1.40;;
47713;SDS011;33475;46.614;13.888;2023-04-23T09:19:30;3.05;;;1.40;;
47713;SDS011;33475;46.614;13.888;2023-04-23T09:21:57;2.83;;;1.67;;
47713;SDS011;33475;46.614;13.888;2023-04-23T09:24:26;2.20;;;1.75;;
47713;SDS011;33475;46.614;13.888;2023-04-23T09:26:52;3.10;;;1.65;;
47713;SDS011;33475;46.614;13.888;2023-04-23T09:29:20;2.50;;;1.90;;
47713;SDS011;33475;46.614;13.888;2023-04-23T09:31:54;3.75;;;1.65;;
47713;SDS011;33475;46.614;13.888;2023-04-23T09:34:21;1.90;;;1.67;;
47713;SDS011;33475;46.614;13.888;2023-04-23T09:36:49;2.30;;;1.90;;
47713;SDS011;33475;46.614;13.888;2023-04-23T09:39:16;1.90;;;1.67;;
47713;SDS011;33475;46.614;13.888;2023-04-23T09:41:43;2.25;;;1.48;;
47713;SDS011;33475;46.614;13.888;2023-04-23T09:44:11;3.70;;;1.90;;
47713;SDS011;33475;46.614;13.888;2023-04-23T09:46:41;3.90;;;1.88;;
47713;SDS011;33475;46.614;13.888;2023-04-23T09:49:08;4.70;;;1.90;;
47713;SDS011;33475;46.614;13.888;2023-04-23T09:51:53;2.88;;;2.60;;
47713;SDS011;33475;46.614;13.888;2023-04-23T09:54:19;4.45;;;2.42;;
47713;SDS011;33475;46.614;13.888;2023-04-23T09:56:50;2.55;;;1.90;;
47713;SDS011;33475;46.614;13.888;2023-04-23T09:59:18;3.75;;;2.03;;
47713;SDS011;33475;46.614;13.888;2023-04-23T10:01:45;6.10;;;2.10;;
47713;SDS011;33475;46.614;13.888;2023-04-23T10:04:12;1.90;;;1.75;;
47713;SDS011;33475;46.614;13.888;2023-04-23T10:06:42;2.47;;;2.20;;
47713;SDS011;33475;46.614;13.888;2023-04-23T10:09:08;2.20;;;1.95;;
47713;SDS011;33475;46.614;13.888;2023-04-23T10:11:35;2.70;;;2.20;;
47713;SDS011;33475;46.614;13.888;2023-04-23T10:14:01;2.90;;;2.05;;
47713;SDS011;33475;46.614;13.888;2023-04-23T10:16:27;4.90;;;2.20;;
47713;SDS011;33475;46.614;13.888;2023-04-23T10:18:54;2.75;;;2.42;;
47713;SDS011;33475;46.614;13.888;2023-04-23T10:21:22;3.08;;;1.67;;
47713;SDS011;33475;46.614;13.888;2023-04-23T10:23:52;5.03;;;2.08;;
47713;SDS011;33475;46.614;13.888;2023-04-23T10:26:19;3.40;;;1.90;;
47713;SDS011;33475;46.614;13.888;2023-04-23T10:28:51;2.78;;;2.58;;
47713;SDS011;33475;46.614;13.888;2023-04-23T10:31:19;3.20;;;2.08;;
47713;SDS011;33475;46.614;13.888;2023-04-23T10:33:46;2.40;;;2.20;;
47713;SDS011;33475;46.614;13.888;2023-04-23T10:36:14;2.22;;;2.03;;
47713;SDS011;33475;46.614;13.888;2023-04-23T10:38:41;2.50;;;2.28;;
47713;SDS011;33475;46.614;13.888;2023-04-23T10:41:07;2.20;;;1.98;;
47713;SDS011;33475;46.614;13.888;2023-04-23T10:43:34;3.30;;;2.10;;
47713;SDS011;33475;46.614;13.888;2023-04-23T10:46:01;3.17;;;2.38;;
47713;SDS011;33475;46.614;13.888;2023-04-23T10:48:27;2.55;;;2.30;;
47713;SDS011;33475;46.614;13.888;2023-04-23T10:50:57;2.55;;;1.85;;
47713;SDS011;33475;46.614;13.888;2023-04-23T10:53:26;2.00;;;1.80;;
47713;SDS011;33475;46.614;13.888;2023-04-23T10:56:05;2.88;;;2.05;;
47713;SDS011;33475;46.614;13.888;2023-04-23T10:58:48;2.35;;;2.15;;
47713;SDS011;33475;46.614;13.888;2023-04-23T11:01:16;3.75;;;1.80;;
47713;SDS011;33475;46.614;13.888;2023-04-23T11:03:43;3.50;;;1.98;;
47713;SDS011;33475;46.614;13.888;2023-04-23T11:06:11;2.72;;;1.80;;
47713;SDS011;33475;46.614;13.888;2023-04-23T11:08:49;2.05;;;1.80;;
47713;SDS011;33475;46.614;13.888;2023-04-23T11:11:24;1.63;;;1.48;;
47713;SDS011;33475;46.614;13.888;2023-04-23T11:14:09;2.95;;;2.10;;
47713;SDS011;33475;46.614;13.888;2023-04-23T11:16:38;4.60;;;2.00;;
47713;SDS011;33475;46.614;13.888;2023-04-23T11:19:08;2.00;;;1.90;;
47713;SDS011;33475;46.614;13.888;2023-04-23T11:24:22;2.42;;;2.22;;
47713;SDS011;33475;46.614;13.888;2023-04-23T11:26:52;2.20;;;2.03;;
47713;SDS011;33475;46.614;13.888;2023-04-23T11:29:19;2.15;;;1.95;;
47713;SDS011;33475;46.614;13.888;2023-04-23T11:31:47;2.78;;;2.10;;
47713;SDS011;33475;46.614;13.888;2023-04-23T11:34:13;3.72;;;2.42;;
47713;SDS011;33475;46.614;13.888;2023-04-23T11:36:40;2.70;;;2.47;;
47713;SDS011;33475;46.614;13.888;2023-04-23T11:39:06;3.05;;;2.30;;
47713;SDS011;33475;46.614;13.888;2023-04-23T11:41:34;2.58;;;2.38;;
47713;SDS011;33475;46.614;13.888;2023-04-23T11:44:02;2.58;;;2.38;;
47713;SDS011;33475;46.614;13.888;2023-04-23T11:46:28;4.97;;;2.80;;
47713;SDS011;33475;46.614;13.888;2023-04-23T11:48:55;5.28;;;2.40;;
47713;SDS011;33475;46.614;13.888;2023-04-23T11:51:24;5.75;;;2.70;;
47713;SDS011;33475;46.614;13.888;2023-04-23T11:53:51;3.53;;;2.33;;
47713;SDS011;33475;46.614;13.888;2023-04-23T11:56:17;3.13;;;2.88;;
47713;SDS011;33475;46.614;13.888;2023-04-23T11:58:57;5.95;;;2.67;;
47713;SDS011;33475;46.614;13.888;2023-04-23T12:01:24;3.00;;;2.72;;
47713;SDS011;33475;46.614;13.888;2023-04-23T12:03:50;3.40;;;2.40;;
47713;SDS011;33475;46.614;13.888;2023-04-23T12:06:17;2.70;;;2.40;;
47713;SDS011;33475;46.614;13.888;2023-04-23T12:08:44;6.40;;;2.47;;
47713;SDS011;33475;46.614;13.888;2023-04-23T12:11:11;8.65;;;1.88;;
47713;SDS011;33475;46.614;13.888;2023-04-23T12:13:38;3.42;;;1.70;;
47713;SDS011;33475;46.614;13.888;2023-04-23T12:16:05;3.10;;;1.90;;
47713;SDS011;33475;46.614;13.888;2023-04-23T12:18:38;3.00;;;2.00;;
47713;SDS011;33475;46.614;13.888;2023-04-23T12:23:36;4.45;;;1.60;;
47713;SDS011;33475;46.614;13.888;2023-04-23T12:26:03;2.10;;;1.88;;
47713;SDS011;33475;46.614;13.888;2023-04-23T12:28:30;2.53;;;1.67;;
47713;SDS011;33475;46.614;13.888;2023-04-23T12:31:00;2.08;;;1.80;;
47713;SDS011;33475;46.614;13.888;2023-04-23T12:33:30;3.33;;;1.58;;
47713;SDS011;33475;46.614;13.888;2023-04-23T12:35:56;2.22;;;1.73;;
47713;SDS011;33475;46.614;13.888;2023-04-23T12:38:25;1.67;;;1.58;;
47713;SDS011;33475;46.614;13.888;2023-04-23T12:40:55;2.95;;;2.75;;
47713;SDS011;33475;46.614;13.888;2023-04-23T12:43:22;2.45;;;2.25;;
47713;SDS011;33475;46.614;13.888;2023-04-23T12:45:48;1.70;;;1.58;;
47713;SDS011;33475;46.614;13.888;2023-04-23T12:48:16;4.47;;;1.80;;
47713;SDS011;33475;46.614;13.888;2023-04-23T12:50:43;2.05;;;1.85;;
47713;SDS011;33475;46.614;13.888;2023-04-23T12:53:10;2.25;;;1.77;;
47713;SDS011;33475;46.614;13.888;2023-04-23T12:55:36;2.60;;;1.20;;
47713;SDS011;33475;46.614;13.888;2023-04-23T12:58:04;1.55;;;1.30;;
47713;SDS011;33475;46.614;13.888;2023-04-23T13:00:30;2.65;;;1.95;;
47713;SDS011;33475;46.614;13.888;2023-04-23T13:02:56;2.85;;;1.70;;
47713;SDS011;33475;46.614;13.888;2023-04-23T13:05:22;2.22;;;1.92;;
47713;SDS011;33475;46.614;13.888;2023-04-23T13:07:49;1.60;;;1.50;;
47713;SDS011;33475;46.614;13.888;2023-04-23T13:10:15;3.95;;;1.75;;
47713;SDS011;33475;46.614;13.888;2023-04-23T13:12:41;3.15;;;2.03;;
47713;SDS011;33475;46.614;13.888;2023-04-23T13:15:08;4.45;;;1.85;;
47713;SDS011;33475;46.614;13.888;2023-04-23T13:17:37;2.15;;;1.50;;
47713;SDS011;33475;46.614;13.888;2023-04-23T13:20:03;3.78;;;1.48;;
47713;SDS011;33475;46.614;13.888;2023-04-23T13:22:29;1.73;;;1.20;;
47713;SDS011;33475;46.614;13.888;2023-04-23T13:24:56;2.55;;;1.73;;
47713;SDS011;33475;46.614;13.888;2023-04-23T13:27:23;1.75;;;1.65;;
47713;SDS011;33475;46.614;13.888;2023-04-23T13:29:50;1.70;;;1.58;;
47713;SDS011;33475;46.614;13.888;2023-04-23T13:32:16;2.47;;;1.55;;
47713;SDS011;33475;46.614;13.888;2023-04-23T13:34:42;2.17;;;1.80;;
47713;SDS011;33475;46.614;13.888;2023-04-23T13:37:08;4.18;;;1.70;;
47713;SDS011;33475;46.614;13.888;2023-04-23T13:39:35;2.42;;;1.90;;
47713;SDS011;33475;46.614;13.888;2023-04-23T13:42:01;7.05;;;2.50;;
47713;SDS011;33475;46.614;13.888;2023-04-23T13:44:29;3.58;;;1.83;;
47713;SDS011;33475;46.614;13.888;2023-04-23T13:46:55;3.95;;;1.95;;
47713;SDS011;33475;46.614;13.888;2023-04-23T13:49:25;3.17;;;2.17;;
47713;SDS011;33475;46.614;13.888;2023-04-23T13:51:55;2.85;;;2.05;;
47713;SDS011;33475;46.614;13.888;2023-04-23T13:54:28;2.47;;;1.95;;
47713;SDS011;33475;46.614;13.888;2023-04-23T13:56:54;2.67;;;2.03;;
47713;SDS011;33475;46.614;13.888;2023-04-23T13:59:21;2.42;;;2.20;;
47713;SDS011;33475;46.614;13.888;2023-04-23T14:01:47;2.17;;;1.92;;
47713;SDS011;33475;46.614;13.888;2023-04-23T14:04:14;3.85;;;2.20;;
47713;SDS011;33475;46.614;13.888;2023-04-23T14:06:41;3.05;;;2.78;;
47713;SDS011;33475;46.614;13.888;2023-04-23T14:09:07;4.13;;;2.30;;
47713;SDS011;33475;46.614;13.888;2023-04-23T14:11:34;4.47;;;2.55;;
47713;SDS011;33475;46.614;13.888;2023-04-23T14:14:00;4.15;;;2.40;;
47713;SDS011;33475;46.614;13.888;2023-04-23T14:16:26;3.72;;;2.60;;
47713;SDS011;33475;46.614;13.888;2023-04-23T14:18:52;2.40;;;2.20;;
47713;SDS011;33475;46.614;13.888;2023-04-23T14:21:18;6.95;;;2.50;;
47713;SDS011;33475;46.614;13.888;2023-04-23T14:23:49;3.42;;;2.35;;
47713;SDS011;33475;46.614;13.888;2023-04-23T14:29:01;2.85;;;2.50;;
47713;SDS011;33475;46.614;13.888;2023-04-23T14:31:27;2.90;;;2.38;;
47713;SDS011;33475;46.614;13.888;2023-04-23T14:33:55;3.95;;;2.92;;
47713;SDS011;33475;46.614;13.888;2023-04-23T14:36:23;2.95;;;2.42;;
47713;SDS011;33475;46.614;13.888;2023-04-23T14:38:49;6.05;;;2.55;;
47713;SDS011;33475;46.614;13.888;2023-04-23T14:41:15;3.08;;;2.47;;
47713;SDS011;33475;46.614;13.888;2023-04-23T14:43:42;5.25;;;2.25;;